Jordan, MN (55352)

4:35 AM CST on December 27, 2014 (GMT -0600)
RAWS MN VALLEY MN US | Change Station
CLOSE
Current Station
Personal Weather Station
Location: Carver, MN
Elevation: 845 ft
Nearby Weather Stations
Active Advisory: Winter Weather Advisory

Elev 845 ft 44.72 °N, 93.64 °W | Updated 46 minutes ago

Snow
Snow
25 °F
Feels Like 16 °F
N
8
Wind Variable Wind from NNW
Gusts 14.0 mph

Today
High -- | Low -- °F
--% Chance of Precip.
Yesterday
High -- | Low -- °F
Precip. -- in
7:50 AM 4:40 PM
Waxing Crescent, 35% visible
Pressure 29.99 in
Visibility 0.5 miles
Clouds
Windchill 16 °F
Dew Point 24 °F
Humidity 96%
Rainfall 0.00 in
Snow Depth Not available.
UV Not available.
Pollen .10 out of 12
Air Quality Not available.
Flu Activity Not available.
SPECI KFCM 271016Z AUTO 34012KT 1/2SM SN FZFG VV008 M04/M06 A2999 RMK AO2 P0000 T10441061

More Conditions Fewer Conditions

Pressure 29.99 in
Visibility 0.5 miles
Clouds
Windchill 16 °F
Dew Point 24 °F
Humidity 96%
Rainfall 0.00 in
Snow Depth Not available.
UV Not available.
Pollen .10 out of 12
Air Quality Not available.
Flu Activity Not available.
SPECI KFCM 271016Z AUTO 34012KT 1/2SM SN FZFG VV008 M04/M06 A2999 RMK AO2 P0000 T10441061

More Conditions Fewer Conditions

10-Day Weather Forecast

Almanac

Astronomy

Dec. 27, 2014 Rise Set
Actual Time
Civil Twilight
Nautical Twilight
Astronomical Twilight
Moon
Length of Visible Light
Length of Day
Tomorrow will be .
, % of the Moon is Illuminated

Today's Extremes

State Highs State Lows

Community

WunderPhotos

Upload Photos

1,780,876 photos uploaded!

WunderBlogs® & News

Nearby

Air Quality

  Air Quality AQ Index Pollutant
Not available.

Snow Depth

Station Depth Elevation

Earthquake Activity

City Distance Mag. Time & Date
Minimum magnitude displayed is 2.5.

Coastal Water Temperatures

Place Temperature

Nearby Weather Stations